createdAt,value
2018-05-08T00:00:05.220Z,15.83
2018-05-08T00:02:32.973Z,15.82
2018-05-08T00:05:00.508Z,15.85
2018-05-08T00:07:28.053Z,15.84
2018-05-08T00:09:55.643Z,15.85
2018-05-08T00:12:23.223Z,15.92
2018-05-08T00:14:50.766Z,15.89
2018-05-08T00:17:18.452Z,15.89
2018-05-08T00:19:45.988Z,15.91
2018-05-08T00:22:13.531Z,15.96
2018-05-08T00:24:41.102Z,15.98
2018-05-08T00:27:08.639Z,16.04
2018-05-08T00:29:36.209Z,16.05
2018-05-08T00:32:03.927Z,16.04
2018-05-08T00:34:31.475Z,16.03
2018-05-08T00:36:59.025Z,15.89
2018-05-08T00:39:26.601Z,15.91
2018-05-08T00:41:54.140Z,15.95
2018-05-08T00:44:21.697Z,16.01
2018-05-08T00:46:49.312Z,16.06
2018-05-08T00:49:16.848Z,16.09
2018-05-08T00:51:44.388Z,16.12
2018-05-08T00:54:11.969Z,16.11
2018-05-08T00:56:39.525Z,16.11
2018-05-08T00:59:07.061Z,16.09
2018-05-08T01:01:34.636Z,16.01
2018-05-08T01:04:02.194Z,16.05
2018-05-08T01:06:29.742Z,16.02
2018-05-08T01:08:57.470Z,16.02
2018-05-08T01:11:25.007Z,16.01
2018-05-08T01:13:52.561Z,16.09
2018-05-08T01:16:20.305Z,16.06
2018-05-08T01:18:47.853Z,16.04
2018-05-08T01:21:15.411Z,16.00
2018-05-08T01:23:43.094Z,16.06
2018-05-08T01:26:10.639Z,16.08
2018-05-08T01:28:38.174Z,16.08
2018-05-08T01:31:06.075Z,16.09
2018-05-08T01:33:33.623Z,16.08
2018-05-08T01:36:01.166Z,16.07
2018-05-08T01:38:28.855Z,16.05
2018-05-08T01:40:56.409Z,16.04
2018-05-08T01:43:23.985Z,16.03
2018-05-08T01:45:51.551Z,16.03
2018-05-08T01:48:19.092Z,16.07
2018-05-08T01:50:46.675Z,16.09
2018-05-08T01:53:14.561Z,16.05
2018-05-08T01:55:42.097Z,16.03
2018-05-08T01:58:09.639Z,15.93
2018-05-08T02:00:37.298Z,15.96
2018-05-08T02:03:04.849Z,15.96
2018-05-08T02:05:32.401Z,15.96
2018-05-08T02:08:00.067Z,15.97
2018-05-08T02:10:27.606Z,15.96
2018-05-08T02:12:55.165Z,15.91
2018-05-08T02:15:22.861Z,15.80
2018-05-08T02:17:50.405Z,15.80
2018-05-08T02:20:18.017Z,15.73
2018-05-08T02:22:45.568Z,15.78
2018-05-08T02:25:13.103Z,15.76
2018-05-08T02:27:40.640Z,15.67
2018-05-08T02:30:08.545Z,15.66
2018-05-08T02:32:36.089Z,15.66
2018-05-08T02:35:03.637Z,15.65
2018-05-08T02:37:31.206Z,15.60
2018-05-08T02:39:58.761Z,15.63
2018-05-08T02:42:26.327Z,15.55
2018-05-08T02:44:53.888Z,15.55
2018-05-08T02:47:21.433Z,15.55
2018-05-08T02:49:49.000Z,15.48
2018-05-08T02:52:16.592Z,15.44
2018-05-08T02:54:44.142Z,15.47
2018-05-08T02:57:11.697Z,15.48
2018-05-08T02:59:39.364Z,15.50
2018-05-08T03:02:06.907Z,15.45
2018-05-08T03:04:34.460Z,15.48
2018-05-08T03:07:02.182Z,15.43
2018-05-08T03:09:29.738Z,15.43
2018-05-08T03:11:57.284Z,15.43
2018-05-08T03:14:25.195Z,15.46
2018-05-08T03:16:52.727Z,15.48
2018-05-08T03:19:20.271Z,15.46
2018-05-08T03:21:47.823Z,15.50
2018-05-08T03:24:15.402Z,15.57
2018-05-08T03:26:42.975Z,15.67
2018-05-08T03:29:10.516Z,15.78
2018-05-08T03:31:38.084Z,15.86
2018-05-08T03:34:06.774Z,15.86
2018-05-08T03:36:34.329Z,15.90
2018-05-08T03:39:01.875Z,15.94
2018-05-08T03:41:29.462Z,15.98
2018-05-08T03:43:57.024Z,16.01
2018-05-08T03:46:24.567Z,15.98
2018-05-08T03:48:52.153Z,16.11
2018-05-08T03:51:19.705Z,16.72
2018-05-08T03:53:47.266Z,17.54
2018-05-08T03:56:14.852Z,18.50
2018-05-08T03:58:42.421Z,19.10
2018-05-08T04:01:21.671Z,19.62
2018-05-08T04:04:00.821Z,20.01
2018-05-08T04:06:40.278Z,20.96
2018-05-08T04:09:07.817Z,22.23
2018-05-08T04:11:35.357Z,23.18
2018-05-08T04:14:03.041Z,23.91
2018-05-08T04:16:30.613Z,24.20
2018-05-08T04:18:58.148Z,24.80
2018-05-08T04:21:25.686Z,25.26
2018-05-08T04:23:54.124Z,26.25
2018-05-08T04:26:21.859Z,27.85
2018-05-08T04:28:49.393Z,29.26
2018-05-08T04:31:16.946Z,30.43
2018-05-08T04:33:44.891Z,31.66
2018-05-08T04:36:12.434Z,32.32
2018-05-08T04:38:40.000Z,33.28
2018-05-08T04:41:07.565Z,34.11
2018-05-08T04:43:35.102Z,34.45
2018-05-08T04:46:02.662Z,35.06
2018-05-08T04:48:30.559Z,35.40
2018-05-08T04:50:58.096Z,35.53
2018-05-08T04:53:25.654Z,35.78
2018-05-08T04:55:53.452Z,35.69
2018-05-08T04:58:20.960Z,36.16
2018-05-08T05:00:48.512Z,36.45
2018-05-08T05:03:16.116Z,37.06
2018-05-08T05:05:43.672Z,37.46
2018-05-08T05:08:11.240Z,37.42
2018-05-08T05:10:38.973Z,37.57
2018-05-08T05:13:06.520Z,37.59
2018-05-08T05:15:34.085Z,37.72
2018-05-08T05:18:01.816Z,37.80
2018-05-08T05:20:29.354Z,38.00
2018-05-08T05:22:56.913Z,37.31
2018-05-08T05:25:24.531Z,37.46
2018-05-08T05:27:52.071Z,36.57
2018-05-08T05:30:19.617Z,35.54
2018-05-08T05:32:47.200Z,35.23
2018-05-08T05:35:14.732Z,33.91
2018-05-08T05:37:42.268Z,33.28
2018-05-08T05:40:09.835Z,33.25
2018-05-08T05:42:37.382Z,32.47
2018-05-08T05:45:04.966Z,31.41
2018-05-08T05:47:32.534Z,30.38
2018-05-08T05:50:00.086Z,29.53
2018-05-08T05:52:27.644Z,29.65
2018-05-08T05:54:55.527Z,29.53
2018-05-08T05:57:23.074Z,29.15
2018-05-08T05:59:50.638Z,29.44
2018-05-08T06:02:18.464Z,29.60
2018-05-08T06:04:46.016Z,29.73
2018-05-08T06:07:13.582Z,29.76
2018-05-08T06:09:41.269Z,29.77
2018-05-08T06:12:08.822Z,29.72
2018-05-08T06:14:36.400Z,29.39
2018-05-08T06:17:03.976Z,29.51
2018-05-08T06:19:31.521Z,29.59
2018-05-08T06:21:59.071Z,29.99
2018-05-08T06:24:26.963Z,29.80
2018-05-08T06:26:54.507Z,29.84
2018-05-08T06:29:22.091Z,29.59
2018-05-08T06:31:49.816Z,29.87
2018-05-08T06:34:17.370Z,29.86
2018-05-08T06:36:44.899Z,29.48
2018-05-08T06:39:12.693Z,28.67
2018-05-08T06:41:41.154Z,28.87
2018-05-08T06:44:08.715Z,28.71
2018-05-08T06:46:36.760Z,29.35
2018-05-08T06:49:04.341Z,29.66
2018-05-08T06:51:31.888Z,30.03
2018-05-08T06:53:59.464Z,29.23
2018-05-08T06:56:27.017Z,28.71
2018-05-08T06:58:54.577Z,28.52
2018-05-08T07:01:22.147Z,28.33
2018-05-08T07:03:50.073Z,28.23
2018-05-08T07:06:17.633Z,27.82
2018-05-08T07:08:45.223Z,28.10
2018-05-08T07:11:12.758Z,27.92
2018-05-08T07:13:40.323Z,27.72
2018-05-08T07:16:08.213Z,27.20
2018-05-08T07:18:35.604Z,26.90
2018-05-08T07:21:03.138Z,26.50
2018-05-08T07:23:30.863Z,26.16
2018-05-08T07:25:58.408Z,26.17
2018-05-08T07:28:25.946Z,26.71
2018-05-08T07:30:53.892Z,27.06
2018-05-08T07:33:21.435Z,27.18
2018-05-08T07:35:48.990Z,27.55
2018-05-08T07:38:16.686Z,27.77
2018-05-08T07:40:44.162Z,27.41
2018-05-08T07:43:11.696Z,27.28
2018-05-08T07:45:39.315Z,26.93
2018-05-08T07:48:06.873Z,26.58
2018-05-08T07:50:34.416Z,26.26
2018-05-08T07:53:01.990Z,25.75
2018-05-08T07:55:29.544Z,25.25
2018-05-08T07:57:57.086Z,24.92
2018-05-08T08:00:24.664Z,24.50
2018-05-08T08:02:52.208Z,23.85
2018-05-08T08:05:19.753Z,23.77
2018-05-08T08:07:47.651Z,23.82
2018-05-08T08:10:15.188Z,23.97
2018-05-08T08:12:42.731Z,24.04
2018-05-08T08:15:10.321Z,23.24
2018-05-08T08:17:37.895Z,23.66
2018-05-08T08:20:05.517Z,24.11
2018-05-08T08:22:33.069Z,24.48
2018-05-08T08:25:00.632Z,24.59
2018-05-08T08:27:28.212Z,24.60
2018-05-08T08:29:55.755Z,24.64
2018-05-08T08:32:23.299Z,24.64
2018-05-08T08:34:50.977Z,24.49
2018-05-08T08:37:18.521Z,24.53
2018-05-08T08:39:46.081Z,24.53
2018-05-08T08:42:13.826Z,24.37
2018-05-08T08:44:41.373Z,24.49
2018-05-08T08:47:08.922Z,24.62
2018-05-08T08:49:36.525Z,25.10
2018-05-08T08:52:04.071Z,24.95
2018-05-08T08:54:31.634Z,25.43
2018-05-08T08:56:59.200Z,25.70
2018-05-08T08:59:26.740Z,25.94
2018-05-08T09:01:54.279Z,26.11
2018-05-08T09:04:21.852Z,25.95
2018-05-08T09:06:49.393Z,25.97
2018-05-08T09:09:16.936Z,25.75
2018-05-08T09:11:44.667Z,25.81
2018-05-08T09:14:12.227Z,25.74
2018-05-08T09:16:39.770Z,25.84
2018-05-08T09:19:07.344Z,25.73
2018-05-08T09:21:34.879Z,25.72
2018-05-08T09:24:02.415Z,26.10
2018-05-08T09:26:30.130Z,26.18
2018-05-08T09:28:57.667Z,26.40
2018-05-08T09:31:25.199Z,26.24
2018-05-08T09:33:52.791Z,26.45
2018-05-08T09:36:20.331Z,26.70
2018-05-08T09:38:47.876Z,26.57
2018-05-08T09:41:15.780Z,26.30
2018-05-08T09:43:43.360Z,26.09
2018-05-08T09:46:10.874Z,26.07
2018-05-08T09:48:38.540Z,26.09
2018-05-08T09:51:06.101Z,26.15
2018-05-08T09:53:33.657Z,26.22
2018-05-08T09:56:01.429Z,26.37
2018-05-08T09:58:28.984Z,26.53
2018-05-08T10:00:56.630Z,26.60
2018-05-08T10:03:24.322Z,26.76
2018-05-08T10:05:51.850Z,26.78
2018-05-08T10:08:19.388Z,27.09
2018-05-08T10:10:47.095Z,27.15
2018-05-08T10:13:14.635Z,27.28
2018-05-08T10:15:42.172Z,27.37
2018-05-08T10:18:09.759Z,27.30
2018-05-08T10:20:37.295Z,27.27
2018-05-08T10:23:04.847Z,27.34
2018-05-08T10:25:32.418Z,27.44
2018-05-08T10:27:59.952Z,27.69
2018-05-08T10:30:27.497Z,27.82
2018-05-08T10:32:55.247Z,27.88
2018-05-08T10:35:22.800Z,27.78
2018-05-08T10:37:50.359Z,27.67
2018-05-08T10:40:18.212Z,27.60
2018-05-08T10:42:45.829Z,27.30
2018-05-08T10:45:13.324Z,27.54
2018-05-08T10:47:41.067Z,27.66
2018-05-08T10:50:08.602Z,27.74
2018-05-08T10:52:36.161Z,27.76
2018-05-08T10:55:03.811Z,27.42
2018-05-08T10:57:31.361Z,27.35
2018-05-08T10:59:58.908Z,27.12
2018-05-08T11:02:26.611Z,26.94
2018-05-08T11:04:54.147Z,26.92
2018-05-08T11:07:21.699Z,27.06
2018-05-08T11:09:49.328Z,26.92
2018-05-08T11:12:16.857Z,27.11
2018-05-08T11:14:44.775Z,27.10
2018-05-08T11:17:12.379Z,27.07
2018-05-08T11:19:39.951Z,27.01
2018-05-08T11:22:07.507Z,26.92
2018-05-08T11:24:35.224Z,27.07
2018-05-08T11:27:03.366Z,26.96
2018-05-08T11:29:30.898Z,26.94
2018-05-08T11:31:58.812Z,26.64
2018-05-08T11:34:26.353Z,26.85
2018-05-08T11:36:53.906Z,27.05
2018-05-08T11:39:21.555Z,27.05
2018-05-08T11:41:49.051Z,27.03
2018-05-08T11:44:16.604Z,26.85
2018-05-08T11:46:44.587Z,26.82
2018-05-08T11:49:12.123Z,26.80
2018-05-08T11:51:39.703Z,26.84
2018-05-08T11:54:07.391Z,26.95
2018-05-08T11:56:34.923Z,27.05
2018-05-08T11:59:02.491Z,27.00
2018-05-08T12:01:30.144Z,27.22
2018-05-08T12:03:57.694Z,27.27
2018-05-08T12:06:25.246Z,27.14
2018-05-08T12:08:52.977Z,27.14
2018-05-08T12:11:20.533Z,27.12
2018-05-08T12:13:48.100Z,27.22
2018-05-08T12:16:15.776Z,27.28
2018-05-08T12:18:43.322Z,27.23
2018-05-08T12:21:10.878Z,27.42
2018-05-08T12:23:38.614Z,27.65
2018-05-08T12:26:06.177Z,27.91
2018-05-08T12:28:33.719Z,27.89
2018-05-08T12:31:01.291Z,27.83
2018-05-08T12:33:28.830Z,27.53
2018-05-08T12:35:56.464Z,27.19
2018-05-08T12:38:23.998Z,26.91
2018-05-08T12:40:51.563Z,26.98
2018-05-08T12:43:19.120Z,27.25
2018-05-08T12:45:46.877Z,27.52
2018-05-08T12:48:14.423Z,27.70
2018-05-08T12:50:41.960Z,27.76
2018-05-08T12:53:09.554Z,27.61
2018-05-08T12:55:37.117Z,27.69
2018-05-08T12:58:04.683Z,27.51
2018-05-08T13:00:32.405Z,27.48
2018-05-08T13:02:59.957Z,27.46
2018-05-08T13:05:27.549Z,27.42
2018-05-08T13:07:55.115Z,27.56
2018-05-08T13:10:22.805Z,27.72
2018-05-08T13:12:50.348Z,27.91
2018-05-08T13:15:17.888Z,27.96
2018-05-08T13:17:45.448Z,28.12
2018-05-08T13:20:12.990Z,28.26
2018-05-08T13:22:40.546Z,28.32
2018-05-08T13:25:08.272Z,28.24
2018-05-08T13:27:35.824Z,28.26
2018-05-08T13:30:03.464Z,28.08
2018-05-08T13:32:31.040Z,28.16
2018-05-08T13:34:58.584Z,27.96
2018-05-08T13:37:26.132Z,27.88
2018-05-08T13:39:53.708Z,27.62
2018-05-08T13:42:21.282Z,27.80
2018-05-08T13:44:48.833Z,27.63
2018-05-08T13:47:16.443Z,26.40
2018-05-08T13:49:43.996Z,26.19
2018-05-08T13:52:11.552Z,26.09
2018-05-08T13:54:39.290Z,25.95
2018-05-08T13:57:06.842Z,25.49
2018-05-08T13:59:34.396Z,25.25
2018-05-08T14:02:02.106Z,25.03
2018-05-08T14:04:29.659Z,24.60
2018-05-08T14:06:57.257Z,24.36
2018-05-08T14:09:24.908Z,24.15
2018-05-08T14:11:52.467Z,23.79
2018-05-08T14:14:20.058Z,23.64
2018-05-08T14:16:47.827Z,23.39
2018-05-08T14:19:15.403Z,23.11
2018-05-08T14:21:42.970Z,23.10
2018-05-08T14:24:10.549Z,22.95
2018-05-08T14:26:38.148Z,22.70
2018-05-08T14:29:05.713Z,22.58
2018-05-08T14:31:33.429Z,22.43
2018-05-08T14:34:00.861Z,22.56
2018-05-08T14:36:28.419Z,22.69
2018-05-08T14:38:56.001Z,22.85
2018-05-08T14:41:23.557Z,22.83
2018-05-08T14:43:51.086Z,22.74
2018-05-08T14:46:18.813Z,22.79
2018-05-08T14:48:46.363Z,22.81
2018-05-08T14:51:13.932Z,22.76
2018-05-08T14:53:41.654Z,22.79
2018-05-08T14:56:09.210Z,22.78
2018-05-08T14:58:36.761Z,22.88
2018-05-08T15:01:04.451Z,22.98
2018-05-08T15:03:31.993Z,23.06
2018-05-08T15:05:59.539Z,23.20
2018-05-08T15:08:27.110Z,23.26
2018-05-08T15:10:54.683Z,23.40
2018-05-08T15:13:22.217Z,23.59
2018-05-08T15:15:49.784Z,23.73
2018-05-08T15:18:17.347Z,23.79
2018-05-08T15:20:44.903Z,23.55
2018-05-08T15:23:12.449Z,23.61
2018-05-08T15:25:39.988Z,23.68
2018-05-08T15:28:07.581Z,23.57
2018-05-08T15:30:35.127Z,23.54
2018-05-08T15:33:02.675Z,23.56
2018-05-08T15:35:30.232Z,23.46
2018-05-08T15:37:57.767Z,23.50
2018-05-08T15:40:25.304Z,23.53
2018-05-08T15:42:52.890Z,23.53
2018-05-08T15:45:20.470Z,23.54
2018-05-08T15:47:48.050Z,23.27
2018-05-08T15:50:15.635Z,23.33
2018-05-08T15:52:43.187Z,23.35
2018-05-08T15:55:10.804Z,23.33
2018-05-08T15:57:38.381Z,23.30
2018-05-08T16:00:05.955Z,23.30
2018-05-08T16:02:33.531Z,23.23
2018-05-08T16:05:01.122Z,23.18
2018-05-08T16:07:28.677Z,22.97
2018-05-08T16:09:56.233Z,22.66
2018-05-08T16:12:23.947Z,22.40
2018-05-08T16:14:51.480Z,22.26
2018-05-08T16:17:19.032Z,22.12
2018-05-08T16:19:46.941Z,21.86
2018-05-08T16:22:14.485Z,21.89
2018-05-08T16:24:42.078Z,21.83
2018-05-08T16:27:09.681Z,21.86
2018-05-08T16:29:37.232Z,21.72
2018-05-08T16:32:04.825Z,21.66
2018-05-08T16:34:32.403Z,21.63
2018-05-08T16:36:59.940Z,21.54
2018-05-08T16:39:27.549Z,21.48
2018-05-08T16:41:55.251Z,21.41
2018-05-08T16:44:22.801Z,21.52
2018-05-08T16:46:50.360Z,21.50
2018-05-08T16:49:18.097Z,21.45
2018-05-08T16:51:45.648Z,21.40
2018-05-08T16:54:13.215Z,21.36
2018-05-08T16:56:40.829Z,21.35
2018-05-08T16:59:08.376Z,21.31
2018-05-08T17:01:35.953Z,21.24
2018-05-08T17:04:03.872Z,21.19
2018-05-08T17:06:31.423Z,21.09
2018-05-08T17:08:58.976Z,21.07
2018-05-08T17:11:26.773Z,21.07
2018-05-08T17:13:54.315Z,21.02
2018-05-08T17:16:21.860Z,20.96
2018-05-08T17:18:49.524Z,20.86
2018-05-08T17:21:17.027Z,20.78
2018-05-08T17:23:44.565Z,20.67
2018-05-08T17:26:12.464Z,20.43
2018-05-08T17:28:40.014Z,20.33
2018-05-08T17:31:07.577Z,20.30
2018-05-08T17:33:35.243Z,20.27
2018-05-08T17:36:02.769Z,20.24
2018-05-08T17:38:30.330Z,20.23
2018-05-08T17:40:58.239Z,20.18
2018-05-08T17:43:25.788Z,20.18
2018-05-08T17:45:53.348Z,20.18
2018-05-08T17:48:21.269Z,20.05
2018-05-08T17:50:48.818Z,20.02
2018-05-08T17:53:16.400Z,19.98
2018-05-08T17:55:44.020Z,19.87
2018-05-08T17:58:11.582Z,19.84
2018-05-08T18:00:39.137Z,19.83
2018-05-08T18:03:06.864Z,19.78
2018-05-08T18:05:34.433Z,19.75
2018-05-08T18:08:02.024Z,19.66
2018-05-08T18:10:29.936Z,19.68
2018-05-08T18:12:57.498Z,19.64
2018-05-08T18:15:25.055Z,19.62
2018-05-08T18:17:52.677Z,19.64
2018-05-08T18:20:20.219Z,19.61
2018-05-08T18:22:47.816Z,19.58
2018-05-08T18:25:15.499Z,19.56
2018-05-08T18:27:43.076Z,19.52
2018-05-08T18:30:10.642Z,19.52
2018-05-08T18:32:39.292Z,19.49
2018-05-08T18:35:06.874Z,19.44
2018-05-08T18:37:34.433Z,19.44
2018-05-08T18:40:02.035Z,19.38
2018-05-08T18:42:29.579Z,19.38
2018-05-08T18:44:57.167Z,19.31
2018-05-08T18:47:24.930Z,19.30
2018-05-08T18:49:52.508Z,19.28
2018-05-08T18:52:20.071Z,19.24
2018-05-08T18:54:47.831Z,19.20
2018-05-08T18:57:15.397Z,19.12
2018-05-08T18:59:42.953Z,19.05
2018-05-08T19:02:10.538Z,19.00
2018-05-08T19:04:38.114Z,18.93
2018-05-08T19:07:05.719Z,18.83
2018-05-08T19:09:33.313Z,18.78
2018-05-08T19:12:00.886Z,18.69
2018-05-08T19:14:28.448Z,18.64
2018-05-08T19:16:56.044Z,18.55
2018-05-08T19:19:29.065Z,18.47
2018-05-08T19:21:56.559Z,18.43
2018-05-08T19:24:29.560Z,18.39
2018-05-08T19:26:57.116Z,18.32
2018-05-08T19:29:30.142Z,18.22
2018-05-08T19:31:57.759Z,18.16
2018-05-08T19:37:35.242Z,17.95
2018-05-08T19:40:02.969Z,17.87
2018-05-08T19:42:30.513Z,17.79
2018-05-08T19:44:58.072Z,17.70
2018-05-08T19:47:25.659Z,17.64
2018-05-08T19:49:53.196Z,17.56
2018-05-08T19:52:20.754Z,17.50
2018-05-08T19:54:48.344Z,17.46
2018-05-08T19:57:15.909Z,17.37
2018-05-08T19:59:43.456Z,17.30
2018-05-08T20:02:11.037Z,17.27
2018-05-08T20:04:38.572Z,17.22
2018-05-08T20:07:06.116Z,17.17
2018-05-08T20:09:34.020Z,17.09
2018-05-08T20:12:01.552Z,17.03
2018-05-08T20:14:29.090Z,16.98
2018-05-08T20:16:56.834Z,16.89
2018-05-08T20:19:24.394Z,16.78
2018-05-08T20:21:51.927Z,16.77
2018-05-08T20:24:19.585Z,16.71
2018-05-08T20:26:47.146Z,16.64
2018-05-08T20:29:14.689Z,16.63
2018-05-08T20:31:42.408Z,16.55
2018-05-08T20:34:09.946Z,16.50
2018-05-08T20:36:37.489Z,16.44
2018-05-08T20:39:06.230Z,16.36
2018-05-08T20:41:33.776Z,16.33
2018-05-08T20:44:01.336Z,16.30
2018-05-08T20:46:29.069Z,16.27
2018-05-08T20:48:56.602Z,16.20
2018-05-08T20:51:24.145Z,16.14
2018-05-08T20:53:51.717Z,16.10
2018-05-08T20:56:19.264Z,16.04
2018-05-08T20:58:47.040Z,16.04
2018-05-08T21:01:14.715Z,15.98
2018-05-08T21:03:42.206Z,15.96
2018-05-08T21:06:09.744Z,15.89
2018-05-08T21:08:37.465Z,15.77
2018-05-08T21:11:05.004Z,15.71
2018-05-08T21:13:32.551Z,15.68
2018-05-08T21:16:00.295Z,15.65
2018-05-08T21:18:27.854Z,15.63
2018-05-08T21:20:55.390Z,15.61
2018-05-08T21:23:22.928Z,15.57
2018-05-08T21:25:50.472Z,15.51
2018-05-08T21:28:23.500Z,15.45
2018-05-08T21:30:56.513Z,15.41
2018-05-08T21:33:24.403Z,15.39
2018-05-08T21:35:51.941Z,15.32
2018-05-08T21:38:19.487Z,15.30
2018-05-08T21:40:47.080Z,15.25
2018-05-08T21:43:14.644Z,15.24
2018-05-08T21:45:42.189Z,15.19
2018-05-08T21:48:09.778Z,15.15
2018-05-08T21:50:37.336Z,15.09
2018-05-08T21:53:04.985Z,15.04
2018-05-08T21:55:32.667Z,15.04
2018-05-08T21:58:00.207Z,15.06
2018-05-08T22:00:27.747Z,15.03
2018-05-08T22:02:55.336Z,14.99
2018-05-08T22:05:22.880Z,14.95
2018-05-08T22:07:50.425Z,14.92
2018-05-08T22:10:18.163Z,14.93
2018-05-08T22:12:45.704Z,14.88
2018-05-08T22:15:13.270Z,14.85
2018-05-08T22:17:40.988Z,14.81
2018-05-08T22:20:08.562Z,14.79
2018-05-08T22:22:36.096Z,14.79
2018-05-08T22:25:03.824Z,14.75
2018-05-08T22:27:31.365Z,14.73
2018-05-08T22:29:58.892Z,14.76
2018-05-08T22:32:26.462Z,14.70
2018-05-08T22:34:53.990Z,14.66
2018-05-08T22:37:21.529Z,14.67
2018-05-08T22:39:49.101Z,14.66
2018-05-08T22:42:16.647Z,14.65
2018-05-08T22:44:44.182Z,14.66
2018-05-08T22:47:11.765Z,14.62
2018-05-08T22:49:39.311Z,14.62
2018-05-08T22:52:06.846Z,14.61
2018-05-08T22:54:34.497Z,14.56
2018-05-08T22:57:02.049Z,14.56
2018-05-08T22:59:29.583Z,14.60
2018-05-08T23:01:57.487Z,14.56
2018-05-08T23:04:25.016Z,14.52
2018-05-08T23:06:52.551Z,14.49
2018-05-08T23:09:20.151Z,14.45
2018-05-08T23:11:47.710Z,14.43
2018-05-08T23:14:15.276Z,14.44
2018-05-08T23:16:43.183Z,14.42
2018-05-08T23:19:10.724Z,14.40
2018-05-08T23:21:38.270Z,14.36
2018-05-08T23:24:05.821Z,14.34
2018-05-08T23:26:33.354Z,14.28
2018-05-08T23:29:00.955Z,14.27
2018-05-08T23:31:28.492Z,14.25
2018-05-08T23:33:56.036Z,14.20
2018-05-08T23:36:23.756Z,14.15
2018-05-08T23:38:51.316Z,14.15
2018-05-08T23:41:18.898Z,14.15
2018-05-08T23:43:46.464Z,14.11
2018-05-08T23:46:13.997Z,14.08
2018-05-08T23:48:41.574Z,14.03
2018-05-08T23:51:09.149Z,14.03
2018-05-08T23:53:36.696Z,14.01
2018-05-08T23:56:04.252Z,13.98
2018-05-08T23:58:31.959Z,13.93
